Decoded Metar for LFRV (VANNES in FRANCE) (IATA:VNE) | Meteo·Mobile Aviation Weather
aviador You're here:

LFRV Decoded Metar

VANNES in FRANCE
Report Time2019-02-17 07:30:00
UTC Time2019-02-17 07:43:59
Flight Rules vfr VFR
Wind160° at 07 kt
W.Decomp.*RWY 22: 3.6 kt HW 6 kt LCW
RWY 08: 1.1 kt HW 6.9 kt RCW
W.Rank160° ranks 27
Current wind is above 160° avg. (6.8)
Visibility9999 m
Phenomena:N/A
Clouds:N/A
CeilingNone
Temp07°C (ISA -7)
Dew Point07°C (100% RH)
AAT3.8°C
QNH1016 hPa
Density Alt-374 ft
Elevation445 ft
Report Wrong Elevation
Raw Report
METAR LFRV 170730Z AUTO 16007KT CAVOK 07/07 Q1016=

Extra information for LFRV:More info

Metar Taf Metar & Taf Last 4 Metars F.Rules Stats Wind Profile Meteogram Temp Stats Airport Information Weather charts Add Link Nearby VenuesMetar ALERT Operation Metar Decoded Social comments